Time;durP1;ratioP1;P1;durP2;ratioP2;P2;SDS_P1;SDS_P2;PMS_P1;PMS_P2;Temp;Humidity;BMP_temperature;BMP_pressure;BME280_temperature;BME280_humidity;BME280_pressure;Samples;Min_cycle;Max_cycle;Signal;HPM_P1;HPM_P2
2021/03/13 00:01:04;;;;;;;1.60;0.80;;;7.30;99.90;;;;;;5033431;28;20409;-64
2021/03/13 00:03:30;;;;;;;1.80;0.83;;;7.20;99.90;;;;;;5032481;28;20437;-64
2021/03/13 00:05:55;;;;;;;2.40;1.00;;;7.30;99.90;;;;;;5031789;28;20407;-65
2021/03/13 00:08:21;;;;;;;2.73;1.20;;;7.40;99.90;;;;;;5027375;28;20183;-64
2021/03/13 00:10:47;;;;;;;2.90;0.90;;;7.40;99.90;;;;;;5032240;28;20183;-64
2021/03/13 00:13:14;;;;;;;1.37;1.13;;;7.40;99.90;;;;;;5031194;28;20198;-64
2021/03/13 00:15:41;;;;;;;1.30;1.00;;;7.30;99.90;;;;;;5031655;28;20406;-64
2021/03/13 00:18:08;;;;;;;2.20;1.10;;;7.30;99.90;;;;;;5032757;28;21008;-64
2021/03/13 00:20:35;;;;;;;3.47;1.80;;;7.20;99.90;;;;;;5032471;28;20480;-64
2021/03/13 00:23:01;;;;;;;2.30;1.00;;;7.20;99.90;;;;;;5032573;28;20507;-64
2021/03/13 00:25:28;;;;;;;2.40;1.93;;;7.30;99.90;;;;;;5024845;28;20464;-64
2021/03/13 00:27:56;;;;;;;1.60;1.10;;;7.40;99.90;;;;;;5034651;28;20839;-64
2021/03/13 00:30:40;;;;;;;1.80;1.10;;;7.70;99.90;;;;;;5031929;28;20422;-64
2021/03/13 00:33:11;;;;;;;2.03;1.20;;;7.60;99.90;;;;;;5033201;28;20465;-64
2021/03/13 00:35:37;;;;;;;1.43;1.00;;;7.60;99.90;;;;;;5033125;28;20422;-64
2021/03/13 00:38:04;;;;;;;1.23;0.90;;;7.70;99.90;;;;;;5032427;28;20807;-64
2021/03/13 00:40:32;;;;;;;1.73;1.10;;;7.50;99.90;;;;;;5032694;28;20407;-63
2021/03/13 00:42:59;;;;;;;2.73;0.80;;;7.60;99.90;;;;;;5032915;28;20856;-64
2021/03/13 00:45:26;;;;;;;1.47;0.93;;;7.50;99.90;;;;;;5032921;28;20398;-64
2021/03/13 00:47:52;;;;;;;1.27;1.07;;;7.50;99.90;;;;;;5025060;28;20934;-65
2021/03/13 00:50:21;;;;;;;2.87;1.10;;;7.50;99.90;;;;;;5035193;28;20409;-64
2021/03/13 00:52:47;;;;;;;2.80;1.00;;;7.50;99.90;;;;;;5036017;28;20503;-64
2021/03/13 00:55:13;;;;;;;1.07;0.80;;;7.20;99.90;;;;;;5036330;28;20390;-64
2021/03/13 00:57:39;;;;;;;1.27;0.80;;;7.20;99.90;;;;;;5036699;28;20854;-64
2021/03/13 01:00:10;;;;;;;0.80;0.60;;;7.10;99.90;;;;;;5036623;28;20498;-64
2021/03/13 01:02:36;;;;;;;1.00;0.67;;;7.30;99.90;;;;;;5036003;28;20195;-64
2021/03/13 01:05:03;;;;;;;1.20;0.80;;;7.20;99.90;;;;;;5035140;28;20968;-64
2021/03/13 01:07:28;;;;;;;4.13;1.00;;;7.20;99.90;;;;;;5034866;28;20417;-64
2021/03/13 01:09:54;;;;;;;1.47;0.60;;;7.20;99.90;;;;;;5035015;28;20433;-64
2021/03/13 01:12:20;;;;;;;3.30;1.00;;;7.00;99.90;;;;;;5036474;28;20178;-64
2021/03/13 01:14:46;;;;;;;2.97;0.93;;;6.90;99.90;;;;;;5035668;28;20179;-64
2021/03/13 01:17:11;;;;;;;2.13;0.80;;;6.90;99.90;;;;;;5036109;28;20215;-65
2021/03/13 01:19:37;;;;;;;1.43;0.70;;;6.90;99.90;;;;;;5035862;28;20683;-63
2021/03/13 01:22:03;;;;;;;1.30;0.50;;;7.00;99.90;;;;;;5031902;28;20521;-63
2021/03/13 01:24:28;;;;;;;1.00;0.70;;;7.00;99.90;;;;;;5034474;28;20229;-63
2021/03/13 01:26:54;;;;;;;0.80;0.60;;;7.10;99.90;;;;;;5035154;28;20191;-63
2021/03/13 01:29:19;;;;;;;0.70;0.57;;;7.20;99.90;;;;;;5038524;28;20659;-63
2021/03/13 01:31:45;;;;;;;1.70;0.70;;;7.30;99.90;;;;;;5036046;28;20175;-63
2021/03/13 01:34:11;;;;;;;0.97;0.60;;;7.30;99.90;;;;;;5036004;28;20733;-63
2021/03/13 01:36:37;;;;;;;0.90;0.60;;;7.10;99.90;;;;;;5029247;28;20226;-63
2021/03/13 01:39:04;;;;;;;0.70;0.60;;;7.00;99.90;;;;;;5035833;28;20172;-63
2021/03/13 01:41:29;;;;;;;2.13;0.70;;;7.10;99.90;;;;;;5035607;28;20780;-63
2021/03/13 01:43:55;;;;;;;2.57;0.80;;;7.00;99.90;;;;;;5039261;28;20434;-63
2021/03/13 01:46:21;;;;;;;0.90;0.60;;;7.00;99.90;;;;;;5035164;28;20190;-63
2021/03/13 01:48:52;;;;;;;0.70;0.60;;;6.90;99.90;;;;;;5035713;28;20180;-63
2021/03/13 01:51:18;;;;;;;0.80;0.60;;;7.00;99.90;;;;;;5035075;28;20176;-63
2021/03/13 01:53:47;;;;;;;0.70;0.60;;;6.90;99.90;;;;;;5068631;23;20524;-63
2021/03/13 01:56:14;;;;;;;1.57;0.70;;;7.00;99.90;;;;;;5095411;28;20451;-63
2021/03/13 01:58:39;;;;;;;1.10;0.77;;;7.00;99.90;;;;;;5094657;28;20410;-63
2021/03/13 02:01:08;;;;;;;1.73;0.80;;;6.90;99.90;;;;;;5086332;28;20403;-63
2021/03/13 02:03:46;;;;;;;1.80;0.80;;;6.90;99.90;;;;;;5094398;28;20606;-64
2021/03/13 02:06:12;;;;;;;1.73;0.90;;;7.00;99.90;;;;;;5092288;28;20415;-64
2021/03/13 02:09:03;;;;;;;2.40;1.20;;;7.10;99.90;;;;;;5094205;28;20429;-65
2021/03/13 02:11:41;;;;;;;1.07;0.83;;;7.00;99.90;;;;;;5095732;28;20185;-64
2021/03/13 02:14:31;;;;;;;2.10;1.23;;;7.00;99.90;;;;;;5095297;28;20419;-65
2021/03/13 02:17:10;;;;;;;2.57;1.00;;;7.10;99.90;;;;;;5079719;28;20443;-65
2021/03/13 02:19:54;;;;;;;1.97;0.80;;;7.00;99.90;;;;;;5067738;28;20453;-66
2021/03/13 02:22:22;;;;;;;1.10;0.90;;;6.90;99.90;;;;;;5074823;28;20372;-64
2021/03/13 02:25:08;;;;;;;1.33;1.00;;;6.80;99.90;;;;;;5082586;28;21013;-65
2021/03/13 02:27:42;;;;;;;0.80;0.80;;;6.80;99.90;;;;;;5050786;28;20408;-64
2021/03/13 02:30:29;;;;;;;3.17;0.97;;;6.80;99.90;;;;;;5073960;28;20416;-64
2021/03/13 02:33:12;;;;;;;1.97;0.97;;;6.70;99.90;;;;;;5054477;28;20405;-65
2021/03/13 02:35:42;;;;;;;1.43;1.10;;;6.70;99.90;;;;;;5065727;28;20396;-64
2021/03/13 02:38:16;;;;;;;3.83;1.10;;;6.80;99.90;;;;;;5073589;28;21093;-64
2021/03/13 02:40:43;;;;;;;1.67;1.20;;;6.80;99.90;;;;;;5073759;28;20401;-64
2021/03/13 02:43:11;;;;;;;3.10;1.43;;;7.00;99.90;;;;;;5073363;28;20412;-64
2021/03/13 02:45:44;;;;;;;2.90;1.13;;;7.00;99.90;;;;;;5073228;28;20463;-64
2021/03/13 02:48:15;;;;;;;3.47;1.37;;;7.00;99.90;;;;;;5074384;28;20389;-64
2021/03/13 02:50:42;;;;;;;2.70;1.47;;;7.00;99.90;;;;;;5074661;28;20392;-64
2021/03/13 02:53:08;;;;;;;3.70;1.33;;;7.10;99.90;;;;;;5073707;28;20768;-64
2021/03/13 02:55:35;;;;;;;3.60;1.73;;;7.00;99.90;;;;;;5074612;28;20385;-64
2021/03/13 02:58:03;;;;;;;3.03;1.13;;;7.00;99.90;;;;;;5067337;28;20443;-64
2021/03/13 03:00:35;;;;;;;4.77;1.33;;;7.00;99.90;;;;;;5074044;28;20408;-64
2021/03/13 03:03:03;;;;;;;2.07;1.50;;;7.00;99.90;;;;;;5074530;28;20409;-63
2021/03/13 03:05:29;;;;;;;2.77;1.17;;;6.90;99.90;;;;;;5073458;28;20400;-64
2021/03/13 03:07:56;;;;;;;4.40;1.90;;;6.90;99.90;;;;;;5069305;28;20478;-65
2021/03/13 03:10:27;;;;;;;3.80;2.03;;;6.90;99.90;;;;;;5068995;28;20989;-64
2021/03/13 03:12:54;;;;;;;2.13;0.93;;;7.10;99.90;;;;;;5072979;28;20762;-64
2021/03/13 03:15:24;;;;;;;1.70;1.10;;;7.20;99.90;;;;;;5073502;28;20854;-64
2021/03/13 03:17:53;;;;;;;3.70;1.40;;;7.20;99.90;;;;;;5073801;28;20493;-64
2021/03/13 03:20:20;;;;;;;3.37;1.60;;;7.20;99.90;;;;;;5073453;28;20940;-64
2021/03/13 03:22:46;;;;;;;2.73;1.27;;;7.20;99.90;;;;;;5072891;28;20415;-64
2021/03/13 03:25:12;;;;;;;2.60;1.20;;;7.20;99.90;;;;;;5072210;28;20424;-64
2021/03/13 03:27:50;;;;;;;5.00;1.10;;;7.30;99.90;;;;;;5073944;28;20197;-64
2021/03/13 03:30:31;;;;;;;5.70;1.10;;;7.30;99.90;;;;;;5090593;28;20750;-64
2021/03/13 03:32:58;;;;;;;4.10;1.10;;;7.40;99.90;;;;;;5094076;28;20487;-64
2021/03/13 03:35:25;;;;;;;2.60;1.20;;;7.40;99.90;;;;;;5090752;28;20432;-64
2021/03/13 03:37:52;;;;;;;1.33;0.90;;;7.40;99.90;;;;;;5066339;28;20944;-64
2021/03/13 03:40:19;;;;;;;5.50;1.30;;;7.50;99.90;;;;;;5070986;28;20400;-64
2021/03/13 03:42:52;;;;;;;3.73;1.23;;;7.40;99.90;;;;;;5074507;28;20389;-63
2021/03/13 03:45:22;;;;;;;2.17;1.23;;;7.40;99.90;;;;;;5074668;28;20388;-64
2021/03/13 03:47:49;;;;;;;2.60;1.20;;;7.60;99.90;;;;;;5073936;28;20396;-63
2021/03/13 03:50:16;;;;;;;4.70;1.23;;;7.50;99.90;;;;;;5073970;28;20404;-63
2021/03/13 03:52:47;;;;;;;3.13;1.20;;;7.70;99.90;;;;;;5073702;28;20446;-64
2021/03/13 03:55:16;;;;;;;3.53;1.47;;;7.90;99.90;;;;;;5071658;28;20454;-63
2021/03/13 03:57:43;;;;;;;5.63;1.60;;;8.00;99.90;;;;;;5072512;28;20445;-64
2021/03/13 04:00:09;;;;;;;2.83;1.20;;;7.90;99.90;;;;;;5073523;28;20404;-64
2021/03/13 04:02:37;;;;;;;2.53;1.43;;;7.80;99.90;;;;;;5077668;28;20516;-64
2021/03/13 04:05:03;;;;;;;2.67;1.20;;;7.80;99.90;;;;;;5093321;28;20419;-64
2021/03/13 04:07:30;;;;;;;3.40;1.10;;;8.00;99.90;;;;;;5078737;28;20435;-64
2021/03/13 04:09:56;;;;;;;2.00;1.33;;;8.00;99.90;;;;;;5071664;28;20534;-64
2021/03/13 04:12:22;;;;;;;2.40;1.00;;;7.80;99.90;;;;;;5071860;28;20415;-64
2021/03/13 04:14:49;;;;;;;4.37;1.00;;;7.80;99.90;;;;;;5072961;28;20427;-64
2021/03/13 04:17:15;;;;;;;1.13;1.03;;;7.70;99.90;;;;;;5065764;28;20443;-64
2021/03/13 04:19:41;;;;;;;5.17;1.40;;;7.80;99.90;;;;;;5071691;28;20412;-65
2021/03/13 04:22:07;;;;;;;1.23;1.00;;;8.00;99.90;;;;;;5071961;28;20404;-64
2021/03/13 04:24:34;;;;;;;3.50;1.30;;;8.10;99.90;;;;;;5080133;28;20473;-64
2021/03/13 04:27:03;;;;;;;1.23;0.87;;;8.00;99.90;;;;;;5097410;28;20215;-65
2021/03/13 04:29:29;;;;;;;4.83;1.30;;;8.00;99.90;;;;;;5082993;28;20416;-63
2021/03/13 04:31:55;;;;;;;2.73;1.00;;;8.00;99.90;;;;;;5076813;28;20911;-63
2021/03/13 04:34:22;;;;;;;3.30;1.30;;;8.10;99.90;;;;;;5075913;28;20205;-64
2021/03/13 04:36:49;;;;;;;5.20;1.33;;;8.00;99.90;;;;;;5075357;28;20451;-63
2021/03/13 04:39:16;;;;;;;3.73;1.20;;;8.00;99.90;;;;;;5075588;28;20403;-63
2021/03/13 04:41:42;;;;;;;7.93;1.10;;;7.90;99.90;;;;;;5076608;28;20423;-62
2021/03/13 04:44:08;;;;;;;3.00;1.03;;;8.00;99.90;;;;;;5058748;28;20435;-63
2021/03/13 04:46:35;;;;;;;3.73;0.83;;;8.10;99.90;;;;;;5080362;28;20798;-63
2021/03/13 04:49:05;;;;;;;4.03;1.13;;;8.30;99.90;;;;;;5076988;28;20706;-63
2021/03/13 04:51:31;;;;;;;1.73;1.00;;;8.40;99.90;;;;;;5075365;28;20451;-64
2021/03/13 04:53:57;;;;;;;2.53;0.90;;;8.20;99.90;;;;;;5074532;28;20483;-64
2021/03/13 04:56:23;;;;;;;2.30;1.27;;;8.10;99.90;;;;;;5076092;28;20457;-64
2021/03/13 04:58:48;;;;;;;2.30;1.00;;;8.00;99.90;;;;;;5076415;28;20276;-64
2021/03/13 05:01:14;;;;;;;2.33;1.00;;;7.90;99.90;;;;;;5076712;28;20167;-64
2021/03/13 05:03:40;;;;;;;3.07;1.13;;;8.00;99.90;;;;;;5076901;28;20608;-64
2021/03/13 05:06:05;;;;;;;1.80;0.90;;;8.00;99.90;;;;;;5072577;28;20166;-62
2021/03/13 05:08:31;;;;;;;1.87;1.10;;;7.80;99.90;;;;;;5072046;28;20174;-64
2021/03/13 05:10:58;;;;;;;2.60;0.90;;;7.90;99.90;;;;;;5076315;28;20635;-64
2021/03/13 05:13:23;;;;;;;1.57;1.07;;;8.00;99.90;;;;;;5076046;28;20511;-64
2021/03/13 05:15:49;;;;;;;4.40;1.10;;;8.10;99.90;;;;;;5076330;28;20435;-64
2021/03/13 05:18:15;;;;;;;1.97;0.80;;;8.20;99.90;;;;;;5076177;28;20252;-64
2021/03/13 05:20:40;;;;;;;1.93;0.80;;;8.10;99.90;;;;;;5075629;28;20216;-64
2021/03/13 05:23:06;;;;;;;1.53;0.90;;;8.20;99.90;;;;;;5074409;28;20221;-65
2021/03/13 05:25:31;;;;;;;2.07;0.83;;;8.20;99.90;;;;;;5075267;28;20170;-65
2021/03/13 05:27:57;;;;;;;1.10;0.80;;;8.10;99.90;;;;;;5076314;28;20246;-64
2021/03/13 05:30:23;;;;;;;2.13;1.00;;;8.20;99.90;;;;;;5076491;28;20170;-65
2021/03/13 05:32:48;;;;;;;1.57;0.90;;;8.30;99.90;;;;;;5075734;28;20711;-64
2021/03/13 05:35:14;;;;;;;2.13;1.20;;;8.30;99.90;;;;;;5075199;28;20488;-64
2021/03/13 05:37:40;;;;;;;1.67;0.80;;;8.40;99.90;;;;;;5073917;28;20203;-64
2021/03/13 05:40:08;;;;;;;3.33;0.87;;;8.50;99.90;;;;;;5075638;28;20407;-64
2021/03/13 05:42:38;;;;;;;1.93;0.80;;;8.40;99.90;;;;;;5078631;28;20167;-65
2021/03/13 05:45:06;;;;;;;1.30;0.97;;;8.40;99.90;;;;;;5075659;28;20452;-64
2021/03/13 05:47:33;;;;;;;1.83;0.70;;;8.40;99.90;;;;;;5067975;28;20419;-64
2021/03/13 05:50:06;;;;;;;1.37;0.70;;;8.50;99.90;;;;;;5074080;28;20417;-65
2021/03/13 05:52:34;;;;;;;1.47;0.80;;;8.50;99.90;;;;;;5074028;28;20445;-64
2021/03/13 05:55:00;;;;;;;2.30;1.40;;;8.50;99.90;;;;;;5074619;28;20461;-64
2021/03/13 05:57:26;;;;;;;1.83;1.43;;;8.40;99.90;;;;;;5075356;28;20812;-64
2021/03/13 05:59:52;;;;;;;0.93;0.70;;;8.50;99.90;;;;;;5069193;28;20426;-65
2021/03/13 06:02:21;;;;;;;1.20;0.87;;;8.70;99.90;;;;;;5075301;28;20419;-65
2021/03/13 06:04:49;;;;;;;2.27;1.00;;;8.70;99.90;;;;;;5073516;28;20185;-65
2021/03/13 06:07:22;;;;;;;3.00;1.27;;;8.60;99.90;;;;;;5073020;28;20907;-63
2021/03/13 06:09:53;;;;;;;4.30;1.07;;;8.70;99.90;;;;;;5074260;28;20416;-64
2021/03/13 06:12:19;;;;;;;2.30;1.40;;;8.70;99.90;;;;;;5074938;28;20416;-64
2021/03/13 06:14:48;;;;;;;2.70;1.00;;;8.60;99.90;;;;;;5074986;28;20443;-64
2021/03/13 06:17:15;;;;;;;3.03;1.20;;;8.60;99.90;;;;;;5075114;28;20450;-63
2021/03/13 06:19:55;;;;;;;1.53;0.70;;;8.60;99.90;;;;;;5074961;28;20493;-64
2021/03/13 06:22:41;;;;;;;2.67;0.90;;;8.60;99.90;;;;;;5066079;28;20440;-64
2021/03/13 06:25:20;;;;;;;2.40;1.20;;;8.70;99.90;;;;;;5090129;28;20452;-64
2021/03/13 06:28:07;;;;;;;5.23;1.03;;;8.80;99.90;;;;;;5083292;28;20511;-64
2021/03/13 06:30:36;;;;;;;2.33;0.90;;;8.80;99.90;;;;;;5074109;28;20507;-64
2021/03/13 06:33:17;;;;;;;2.40;1.27;;;8.90;99.90;;;;;;5072718;28;20417;-66
2021/03/13 06:35:43;;;;;;;4.10;0.93;;;9.00;99.90;;;;;;5073533;28;20865;-64
2021/03/13 06:38:15;;;;;;;3.60;1.30;;;9.00;99.90;;;;;;5074054;28;20550;-64
2021/03/13 06:40:41;;;;;;;4.13;1.77;;;9.00;99.90;;;;;;5074325;28;20660;-62
2021/03/13 06:43:22;;;;;;;1.20;0.83;;;9.00;99.90;;;;;;5074748;28;20407;-64
2021/03/13 06:46:07;;;;;;;2.93;1.20;;;8.90;99.90;;;;;;5074816;28;20986;-64
2021/03/13 06:48:37;;;;;;;5.30;2.23;;;9.00;99.90;;;;;;5069284;28;20497;-64
2021/03/13 06:51:22;;;;;;;2.70;1.40;;;9.10;99.90;;;;;;5077874;28;20413;-64
2021/03/13 06:54:07;;;;;;;5.50;3.37;;;9.20;99.90;;;;;;5087418;28;20833;-63
2021/03/13 06:56:37;;;;;;;9.70;5.53;;;9.30;99.90;;;;;;5068314;28;20820;-64
2021/03/13 06:59:16;;;;;;;3.27;1.70;;;9.40;99.90;;;;;;5055825;28;20406;-64
2021/03/13 07:01:43;;;;;;;3.97;1.87;;;9.30;99.90;;;;;;5072545;28;20771;-65
2021/03/13 07:04:08;;;;;;;10.30;5.70;;;9.40;99.90;;;;;;5073885;28;20431;-64
2021/03/13 07:06:46;;;;;;;5.83;1.70;;;9.60;99.90;;;;;;5072626;28;20946;-64
2021/03/13 07:09:12;;;;;;;2.60;1.30;;;9.60;99.90;;;;;;5072869;28;20209;-64
2021/03/13 07:11:38;;;;;;;7.50;4.53;;;9.60;99.90;;;;;;5073802;28;20434;-64
2021/03/13 07:14:04;;;;;;;2.93;0.93;;;9.60;99.90;;;;;;5056039;28;20199;-64
2021/03/13 07:16:38;;;;;;;3.20;1.00;;;9.60;99.90;;;;;;5073523;28;20204;-64
2021/03/13 07:19:12;;;;;;;1.40;0.70;;;9.70;99.90;;;;;;5072860;28;20403;-64
2021/03/13 07:21:41;;;;;;;2.33;1.00;;;9.70;99.90;;;;;;5073131;28;20400;-64
2021/03/13 07:24:14;;;;;;;2.23;1.00;;;9.70;99.90;;;;;;5082865;28;20438;-64
2021/03/13 07:26:41;;;;;;;2.10;1.47;;;9.80;99.90;;;;;;5081002;28;20430;-65
2021/03/13 07:29:09;;;;;;;2.67;1.50;;;9.70;99.90;;;;;;5072689;28;20424;-62
2021/03/13 07:31:40;;;;;;;1.97;0.87;;;9.70;99.90;;;;;;5073662;28;20403;-62
2021/03/13 07:34:09;;;;;;;1.50;0.90;;;9.70;99.90;;;;;;5073630;28;20439;-62
2021/03/13 07:36:42;;;;;;;2.37;1.40;;;9.80;99.90;;;;;;5073325;28;20482;-62
2021/03/13 07:39:20;;;;;;;1.70;1.00;;;10.00;99.90;;;;;;5075388;28;20399;-62
2021/03/13 07:42:19;;;;;;;1.13;0.83;;;10.20;99.90;;;;;;5072304;28;20409;-62
2021/03/13 07:44:46;;;;;;;1.80;0.80;;;10.10;99.90;;;;;;5068628;28;20420;-62
2021/03/13 07:47:14;;;;;;;4.50;3.63;;;10.10;99.90;;;;;;5053469;28;20414;-61
2021/03/13 07:49:40;;;;;;;2.50;2.00;;;10.20;99.90;;;;;;5053569;28;20408;-58
2021/03/13 07:52:08;;;;;;;1.83;0.97;;;10.30;99.90;;;;;;5054767;28;20420;-62
2021/03/13 07:54:40;;;;;;;1.67;1.10;;;10.20;99.90;;;;;;5090699;22;20478;-64
2021/03/13 07:57:07;;;;;;;1.23;0.90;;;10.20;99.90;;;;;;5091793;28;20823;-64
2021/03/13 07:59:47;;;;;;;1.90;0.83;;;10.30;99.90;;;;;;5091457;28;20452;-64
2021/03/13 08:02:28;;;;;;;1.83;0.90;;;10.60;99.90;;;;;;5077513;28;20404;-63
2021/03/13 08:04:56;;;;;;;6.67;2.03;;;10.60;99.90;;;;;;5072668;28;20428;-63
2021/03/13 08:07:22;;;;;;;1.97;1.20;;;10.70;99.90;;;;;;5079883;28;20418;-63
2021/03/13 08:09:48;;;;;;;1.77;0.97;;;10.60;99.90;;;;;;5092644;28;20410;-64
2021/03/13 08:12:40;;;;;;;2.97;0.70;;;10.60;99.90;;;;;;5093027;28;20401;-64
2021/03/13 08:15:32;;;;;;;1.30;0.60;;;10.50;99.90;;;;;;5088237;28;20192;-64
2021/03/13 08:17:58;;;;;;;3.13;1.00;;;10.40;99.90;;;;;;5091807;28;20818;-64
2021/03/13 08:20:31;;;;;;;2.10;0.90;;;10.40;99.90;;;;;;5093147;28;20403;-63
2021/03/13 08:23:12;;;;;;;1.57;0.60;;;10.30;99.90;;;;;;5092194;28;20177;-64
2021/03/13 08:25:58;;;;;;;2.10;0.60;;;10.40;99.90;;;;;;5092524;28;20797;-64
2021/03/13 08:28:45;;;;;;;1.47;0.70;;;10.50;99.90;;;;;;5092927;28;20410;-62
2021/03/13 08:31:23;;;;;;;1.40;0.60;;;10.40;99.90;;;;;;5072526;28;20406;-62
2021/03/13 08:33:49;;;;;;;1.83;0.90;;;10.40;99.90;;;;;;5072855;28;20840;-62
2021/03/13 08:36:16;;;;;;;1.07;0.77;;;10.30;99.90;;;;;;5069973;28;20870;-62
2021/03/13 08:38:58;;;;;;;1.33;0.70;;;10.40;99.90;;;;;;5088029;28;20418;-63
2021/03/13 08:41:41;;;;;;;1.80;0.70;;;10.40;99.90;;;;;;5092880;28;20401;-62
2021/03/13 08:44:25;;;;;;;1.40;0.70;;;10.40;99.90;;;;;;5092956;28;20443;-62
2021/03/13 08:47:06;;;;;;;1.67;0.70;;;10.50;99.90;;;;;;5092654;28;20425;-62
2021/03/13 08:49:31;;;;;;;2.97;0.97;;;10.60;99.90;;;;;;5091091;28;20431;-63
2021/03/13 08:52:09;;;;;;;0.90;0.73;;;10.80;99.90;;;;;;5091728;28;20500;-62
2021/03/13 08:54:37;;;;;;;1.93;1.07;;;11.00;99.90;;;;;;5092146;28;20212;-62
2021/03/13 08:57:40;;;;;;;5.43;0.77;;;11.30;99.50;;;;;;5092541;28;20841;-63
2021/03/13 09:00:07;;;;;;;2.00;0.90;;;11.40;99.20;;;;;;5092803;28;20399;-62
2021/03/13 09:02:39;;;;;;;2.07;0.80;;;11.40;99.20;;;;;;5092508;28;20401;-63
2021/03/13 09:05:09;;;;;;;3.72;1.02;;;11.50;99.00;;;;;;5091677;28;20804;-62
2021/03/13 09:07:36;;;;;;;1.10;0.77;;;11.50;98.90;;;;;;5084801;28;20181;-63
2021/03/13 09:10:03;;;;;;;1.63;0.80;;;11.40;98.00;;;;;;5073314;28;20415;-62
2021/03/13 09:12:31;;;;;;;1.17;0.60;;;11.60;98.40;;;;;;5076122;28;20446;-62
2021/03/13 09:15:00;;;;;;;3.20;1.03;;;11.60;97.90;;;;;;5089481;28;20429;-62
2021/03/13 09:17:30;;;;;;;0.80;0.60;;;11.70;97.40;;;;;;5087060;28;20824;-62
2021/03/13 09:20:05;;;;;;;3.93;1.27;;;11.60;97.60;;;;;;5095251;28;20418;-63
2021/03/13 09:22:30;;;;;;;2.23;0.83;;;11.70;97.90;;;;;;5093228;28;20388;-63
2021/03/13 09:25:02;;;;;;;2.03;0.80;;;11.80;97.20;;;;;;5094273;28;20434;-62
2021/03/13 09:27:32;;;;;;;1.17;0.77;;;12.00;97.40;;;;;;5095919;28;20171;-62
2021/03/13 09:29:59;;;;;;;3.63;2.00;;;12.00;96.90;;;;;;5098767;28;20814;-62
2021/03/13 09:32:28;;;;;;;1.97;1.20;;;12.00;97.70;;;;;;5095922;28;20503;-62
2021/03/13 09:34:55;;;;;;;2.07;0.90;;;12.20;97.10;;;;;;5090840;28;20932;-63
2021/03/13 09:37:30;;;;;;;1.30;0.87;;;12.00;96.70;;;;;;5093252;28;20505;-62
2021/03/13 09:40:25;;;;;;;1.37;0.77;;;12.20;97.30;;;;;;5091247;28;21404;-63
2021/03/13 09:42:51;;;;;;;2.27;0.83;;;12.10;96.60;;;;;;5068492;28;20450;-62
2021/03/13 09:45:19;;;;;;;1.47;0.97;;;12.10;96.60;;;;;;5075606;28;20412;-62
2021/03/13 09:48:06;;;;;;;0.90;0.60;;;12.30;96.10;;;;;;5075457;28;20407;-61
2021/03/13 09:50:32;;;;;;;2.83;0.70;;;12.20;96.70;;;;;;5076357;28;20384;-62
2021/03/13 09:53:03;;;;;;;1.63;1.00;;;12.10;95.70;;;;;;5075593;28;20404;-63
2021/03/13 09:55:30;;;;;;;1.37;0.73;;;12.10;96.30;;;;;;5107771;28;20511;-64
2021/03/13 09:57:58;;;;;;;4.27;1.20;;;12.20;96.80;;;;;;5089500;28;20504;-65
2021/03/13 10:00:28;;;;;;;1.90;1.10;;;12.30;96.60;;;;;;5095354;28;20416;-64
2021/03/13 10:02:55;;;;;;;3.17;0.90;;;12.50;96.90;;;;;;5087048;28;20914;-65
2021/03/13 10:05:25;;;;;;;2.20;0.80;;;12.60;96.30;;;;;;5092190;28;20436;-64
2021/03/13 10:07:51;;;;;;;1.13;0.87;;;12.60;96.10;;;;;;5094494;28;20478;-65
2021/03/13 10:10:24;;;;;;;2.63;1.33;;;12.70;96.20;;;;;;5095068;28;20410;-65
2021/03/13 10:12:55;;;;;;;1.63;0.80;;;12.70;96.30;;;;;;5095239;28;20395;-64
2021/03/13 10:15:22;;;;;;;6.83;1.47;;;12.50;96.40;;;;;;5086231;28;20445;-64
2021/03/13 10:18:04;;;;;;;1.73;0.67;;;12.20;96.60;;;;;;5081557;28;20442;-66
2021/03/13 10:20:50;;;;;;;2.83;0.90;;;12.10;96.60;;;;;;5090176;28;20964;-65
2021/03/13 10:23:19;;;;;;;2.53;0.87;;;12.00;96.40;;;;;;5093875;28;20410;-64
2021/03/13 10:26:06;;;;;;;3.77;1.17;;;12.00;96.30;;;;;;5094587;28;20506;-65
2021/03/13 10:28:35;;;;;;;1.10;0.70;;;12.00;96.90;;;;;;5094855;28;20886;-65
2021/03/13 10:31:06;;;;;;;1.70;0.80;;;11.90;96.70;;;;;;5094875;28;20404;-65
2021/03/13 10:33:33;;;;;;;1.10;0.60;;;12.00;96.80;;;;;;5094564;28;20410;-65
2021/03/13 10:35:59;;;;;;;1.67;0.80;;;12.10;96.60;;;;;;5093125;28;20401;-66
2021/03/13 10:38:25;;;;;;;1.53;0.77;;;12.20;96.90;;;;;;5087102;28;20451;-65
2021/03/13 10:40:52;;;;;;;1.73;1.00;;;12.10;96.80;;;;;;5085394;28;20258;-65
2021/03/13 10:43:19;;;;;;;1.67;0.70;;;12.10;96.50;;;;;;5088519;28;20173;-65
2021/03/13 10:46:09;;;;;;;1.93;0.70;;;12.20;97.00;;;;;;5093757;28;20434;-65
2021/03/13 10:48:56;;;;;;;4.37;0.80;;;12.00;96.70;;;;;;5073893;28;20404;-65
2021/03/13 10:51:41;;;;;;;1.10;0.70;;;12.00;96.60;;;;;;5085345;28;20408;-65
2021/03/13 10:54:25;;;;;;;1.63;0.80;;;12.00;96.50;;;;;;5098633;28;20591;-65
2021/03/13 10:56:51;;;;;;;3.60;0.87;;;12.10;96.90;;;;;;5075569;28;20458;-65
2021/03/13 10:59:17;;;;;;;2.73;0.77;;;12.30;97.30;;;;;;5086070;28;20494;-66
2021/03/13 11:01:46;;;;;;;1.87;0.80;;;12.00;96.10;;;;;;5093246;28;20467;-65
2021/03/13 11:04:13;;;;;;;0.90;0.70;;;11.90;96.40;;;;;;5093000;28;20487;-65
2021/03/13 11:06:39;;;;;;;4.47;1.33;;;12.10;96.70;;;;;;5093707;28;20403;-65
2021/03/13 11:09:10;;;;;;;1.67;0.80;;;12.00;96.20;;;;;;5093703;28;20499;-65
2021/03/13 11:11:37;;;;;;;0.80;0.60;;;12.00;96.10;;;;;;5094240;28;20728;-64
2021/03/13 11:14:06;;;;;;;2.87;0.60;;;12.00;95.90;;;;;;5093798;28;20423;-65
2021/03/13 11:16:33;;;;;;;1.30;0.80;;;12.10;95.90;;;;;;5092562;28;20461;-65
2021/03/13 11:18:59;;;;;;;1.43;0.60;;;12.00;95.70;;;;;;5093237;28;20402;-65
2021/03/13 11:21:26;;;;;;;3.50;0.90;;;12.10;96.00;;;;;;5093458;28;20413;-64
2021/03/13 11:23:52;;;;;;;4.33;1.10;;;12.10;95.50;;;;;;5096187;28;20650;-65
2021/03/13 11:26:19;;;;;;;1.20;0.70;;;12.20;95.50;;;;;;5113908;28;20400;-65
2021/03/13 11:28:46;;;;;;;1.77;0.83;;;12.30;95.60;;;;;;5114212;28;20390;-65
2021/03/13 11:31:12;;;;;;;4.30;1.03;;;12.20;95.30;;;;;;5107554;28;20402;-65
2021/03/13 11:33:38;;;;;;;2.10;0.70;;;12.20;95.20;;;;;;5096288;28;20408;-65
2021/03/13 11:36:04;;;;;;;1.43;0.67;;;12.30;95.50;;;;;;5079800;28;20495;-65
2021/03/13 11:38:34;;;;;;;1.33;0.60;;;12.30;95.20;;;;;;5093485;28;20193;-65
2021/03/13 11:41:04;;;;;;;1.73;0.70;;;12.40;95.30;;;;;;5075188;28;20415;-64
2021/03/13 11:43:30;;;;;;;1.10;0.70;;;12.30;95.30;;;;;;5093475;28;20452;-65
2021/03/13 11:45:56;;;;;;;1.50;1.00;;;12.50;95.30;;;;;;5093404;28;20391;-65
2021/03/13 11:48:22;;;;;;;2.80;0.90;;;12.50;95.60;;;;;;5092852;28;20421;-65
2021/03/13 11:50:49;;;;;;;1.03;0.70;;;12.60;95.80;;;;;;5085329;28;20181;-65
2021/03/13 11:53:14;;;;;;;1.10;0.83;;;12.60;94.80;;;;;;5092962;28;20189;-65
2021/03/13 11:55:41;;;;;;;1.70;1.10;;;12.60;95.50;;;;;;5092572;28;20811;-65
2021/03/13 11:58:06;;;;;;;3.73;0.67;;;12.70;94.80;;;;;;5093102;28;20268;-66
2021/03/13 12:00:32;;;;;;;0.80;0.60;;;12.60;94.60;;;;;;5093514;28;20983;-65
2021/03/13 12:02:58;;;;;;;1.10;0.80;;;12.70;94.80;;;;;;5093137;28;20251;-65
2021/03/13 12:05:23;;;;;;;0.87;0.60;;;12.70;94.70;;;;;;5089748;28;20223;-65
2021/03/13 12:07:49;;;;;;;2.40;0.83;;;12.70;94.60;;;;;;5087139;28;20643;-65
2021/03/13 12:10:15;;;;;;;2.93;0.80;;;12.50;95.00;;;;;;5092386;28;20222;-65
2021/03/13 12:12:40;;;;;;;1.73;0.80;;;12.50;95.00;;;;;;5093084;28;20165;-63
2021/03/13 12:15:08;;;;;;;1.17;0.50;;;12.50;95.40;;;;;;5092997;28;20271;-65
2021/03/13 12:17:35;;;;;;;3.60;0.70;;;12.40;95.90;;;;;;5092818;28;20189;-65
2021/03/13 12:20:00;;;;;;;1.20;0.60;;;12.50;97.20;;;;;;5092821;28;20798;-66
2021/03/13 12:22:26;;;;;;;3.07;0.90;;;12.40;97.40;;;;;;5093157;28;20404;-65
2021/03/13 12:24:53;;;;;;;0.73;0.60;;;12.40;97.40;;;;;;5092801;28;20193;-66
2021/03/13 12:27:19;;;;;;;0.70;0.57;;;12.30;96.90;;;;;;5084260;28;20172;-69
2021/03/13 12:29:44;;;;;;;2.23;1.40;;;12.30;97.40;;;;;;5090801;28;20517;-64
2021/03/13 12:32:10;;;;;;;0.80;0.67;;;12.30;98.60;;;;;;5090856;28;20399;-65
2021/03/13 12:34:36;;;;;;;2.23;1.27;;;12.30;97.80;;;;;;5082963;28;20197;-65
2021/03/13 12:37:02;;;;;;;1.23;0.87;;;12.20;98.20;;;;;;5091257;28;20759;-66
2021/03/13 12:39:27;;;;;;;2.07;0.90;;;12.30;98.60;;;;;;5084169;28;20418;-66
2021/03/13 12:41:53;;;;;;;1.07;0.70;;;12.30;98.60;;;;;;5072675;28;20219;-65
2021/03/13 12:44:19;;;;;;;2.23;0.80;;;12.20;99.20;;;;;;5072635;28;20605;-66
2021/03/13 12:46:45;;;;;;;1.73;0.80;;;12.40;99.00;;;;;;5084929;28;20174;-66
2021/03/13 12:49:10;;;;;;;1.63;0.80;;;12.80;98.80;;;;;;5096844;28;20177;-65
2021/03/13 12:51:37;;;;;;;10.70;9.43;;;12.80;98.20;;;;;;5096088;28;20201;-66
2021/03/13 12:54:03;;;;;;;3.43;2.20;;;12.80;98.80;;;;;;5095084;28;20243;-66
2021/03/13 12:56:29;;;;;;;2.70;1.30;;;12.90;98.80;;;;;;5095651;28;20450;-66
2021/03/13 12:58:54;;;;;;;1.50;0.83;;;12.50;99.40;;;;;;5096674;28;20398;-65
2021/03/13 13:01:20;;;;;;;1.30;1.00;;;12.00;99.90;;;;;;5078544;28;20174;-65
2021/03/13 13:04:00;;;;;;;1.63;0.80;;;11.70;99.90;;;;;;5096841;28;20323;-65
2021/03/13 13:06:27;;;;;;;1.23;0.80;;;11.50;99.90;;;;;;5096473;28;20173;-65